createdAt,value
2019-03-25T00:01:54.825Z,101003.14
2019-03-25T00:04:25.416Z,101013.31
2019-03-25T00:06:55.768Z,101007.92
2019-03-25T00:09:26.131Z,100997.73
2019-03-25T00:11:56.516Z,100998.71
2019-03-25T00:14:26.882Z,101001.41
2019-03-25T00:16:57.232Z,100996.28
2019-03-25T00:19:27.591Z,100998.25
2019-03-25T00:21:58.063Z,100996.16
2019-03-25T00:24:38.144Z,100991.14
2019-03-25T00:27:00.462Z,100981.08
2019-03-25T00:29:30.814Z,100975.67
2019-03-25T00:32:01.247Z,100968.20
2019-03-25T00:34:31.608Z,100968.70
2019-03-25T00:37:02.009Z,100964.28
2019-03-25T00:39:32.390Z,100962.03
2019-03-25T00:42:02.756Z,100962.66
2019-03-25T00:44:33.182Z,100957.66
2019-03-25T00:47:03.537Z,100953.48
2019-03-25T00:49:33.908Z,100946.36
2019-03-25T00:52:04.293Z,100948.64
2019-03-25T00:54:34.682Z,100947.32
2019-03-25T00:57:05.060Z,100945.86
2019-03-25T00:59:35.418Z,100944.72
2019-03-25T01:02:05.788Z,100945.84
2019-03-25T01:04:36.170Z,100946.61
2019-03-25T01:07:06.528Z,100943.30
2019-03-25T01:09:36.895Z,100943.30
2019-03-25T01:12:07.243Z,100938.89
2019-03-25T01:14:37.608Z,100930.47
2019-03-25T01:17:07.957Z,100925.06
2019-03-25T01:19:39.384Z,100921.52
2019-03-25T01:22:09.734Z,100910.58
2019-03-25T01:24:40.108Z,100912.14
2019-03-25T01:27:10.496Z,100907.89
2019-03-25T01:29:40.886Z,100905.59
2019-03-25T01:32:11.246Z,100899.79
2019-03-25T01:34:41.609Z,100894.03
2019-03-25T01:37:12.014Z,100899.53
2019-03-25T01:39:42.361Z,100892.80
2019-03-25T01:42:12.809Z,100894.16
2019-03-25T01:44:43.172Z,100892.17
2019-03-25T01:47:13.542Z,100887.87
2019-03-25T01:49:43.915Z,100885.27
2019-03-25T01:52:14.329Z,100881.86
2019-03-25T01:54:44.666Z,100878.71
2019-03-25T01:57:15.148Z,100872.83
2019-03-25T01:59:45.521Z,100867.22
2019-03-25T02:02:16.957Z,100856.52
2019-03-25T02:04:47.326Z,100855.75
2019-03-25T02:07:17.672Z,100849.76
2019-03-25T02:09:48.044Z,100843.38
2019-03-25T02:12:18.403Z,100844.21
2019-03-25T02:14:49.851Z,100844.58
2019-03-25T02:17:20.300Z,100839.80
2019-03-25T02:19:50.677Z,100836.80
2019-03-25T02:22:21.101Z,100829.50
2019-03-25T02:24:51.448Z,100832.47
2019-03-25T02:27:21.841Z,100826.45
2019-03-25T02:29:52.196Z,100822.03
2019-03-25T02:32:22.665Z,100820.69
2019-03-25T02:34:53.029Z,100818.12
2019-03-25T02:37:23.560Z,100812.81
2019-03-25T02:39:53.913Z,100805.81
2019-03-25T02:42:24.279Z,100800.78
2019-03-25T02:44:54.657Z,100793.98
2019-03-25T02:47:25.063Z,100787.94
2019-03-25T02:49:55.419Z,100786.27
2019-03-25T02:52:25.797Z,100784.61
2019-03-25T02:54:56.167Z,100782.61
2019-03-25T02:57:26.546Z,100779.95
2019-03-25T02:59:56.912Z,100774.78
2019-03-25T03:02:27.263Z,100779.45
2019-03-25T03:04:57.638Z,100777.73
2019-03-25T03:07:28.037Z,100776.89
2019-03-25T03:09:58.422Z,100766.84
2019-03-25T03:12:28.795Z,100762.36
2019-03-25T03:14:59.164Z,100758.32
2019-03-25T03:17:30.325Z,100750.59
2019-03-25T03:20:00.674Z,100748.77
2019-03-25T03:22:31.037Z,100748.00
2019-03-25T03:25:01.387Z,100738.80
2019-03-25T03:27:31.735Z,100735.48
2019-03-25T03:30:02.298Z,100730.19
2019-03-25T03:32:33.725Z,100732.81
2019-03-25T03:35:05.919Z,100722.04
2019-03-25T03:37:36.289Z,100718.09
2019-03-25T03:40:06.660Z,100717.02
2019-03-25T03:42:37.034Z,100715.37
2019-03-25T03:45:07.595Z,100711.27
2019-03-25T03:47:37.992Z,100711.22
2019-03-25T03:50:09.502Z,100706.07
2019-03-25T03:52:39.925Z,100709.26
2019-03-25T03:55:13.057Z,100705.61
2019-03-25T03:57:43.414Z,100698.02
2019-03-25T04:00:25.718Z,100689.56
2019-03-25T04:02:56.102Z,100685.27
2019-03-25T04:05:26.469Z,100685.31
2019-03-25T04:07:56.813Z,100679.61
2019-03-25T04:10:27.578Z,100674.31
2019-03-25T04:12:57.976Z,100677.77
2019-03-25T04:15:30.096Z,100673.61
2019-03-25T04:18:00.449Z,100679.02
2019-03-25T04:20:30.806Z,100682.94
2019-03-25T04:23:01.188Z,100680.38
2019-03-25T04:25:31.576Z,100691.52
2019-03-25T04:28:01.944Z,100683.81
2019-03-25T04:30:32.292Z,100680.87
2019-03-25T04:33:02.668Z,100676.19
2019-03-25T04:35:33.170Z,100672.64
2019-03-25T04:38:04.352Z,100665.40
2019-03-25T04:40:34.700Z,100675.50
2019-03-25T04:43:05.075Z,100665.09
2019-03-25T04:45:35.466Z,100659.00
2019-03-25T04:48:06.922Z,100659.59
2019-03-25T04:50:37.343Z,100656.04
2019-03-25T04:53:07.693Z,100651.61
2019-03-25T04:55:38.046Z,100650.37
2019-03-25T04:58:08.418Z,100646.80
2019-03-25T05:00:38.772Z,100643.56
2019-03-25T05:03:09.143Z,100648.51
2019-03-25T05:05:39.523Z,100648.64
2019-03-25T05:08:09.894Z,100641.67
2019-03-25T05:10:40.249Z,100640.11
2019-03-25T05:13:10.609Z,100629.25
2019-03-25T05:15:40.970Z,100633.36
2019-03-25T05:18:11.324Z,100619.70
2019-03-25T05:20:41.694Z,100622.58
2019-03-25T05:23:12.071Z,100616.12
2019-03-25T05:25:42.448Z,100619.31
2019-03-25T05:28:12.811Z,100616.70
2019-03-25T05:30:43.173Z,100607.39
2019-03-25T05:33:13.549Z,100600.69
2019-03-25T05:35:43.896Z,100598.52
2019-03-25T05:38:14.248Z,100598.16
2019-03-25T05:40:44.603Z,100590.55
2019-03-25T05:43:14.974Z,100587.86
2019-03-25T05:45:45.346Z,100587.05
2019-03-25T05:48:15.897Z,100580.22
2019-03-25T05:50:46.260Z,100577.05
2019-03-25T05:53:16.771Z,100571.35
2019-03-25T05:55:47.112Z,100570.42
2019-03-25T05:58:17.541Z,100571.79
2019-03-25T06:00:47.934Z,100578.42
2019-03-25T06:03:18.580Z,100582.16
2019-03-25T06:05:48.949Z,100573.95
2019-03-25T06:08:22.389Z,100575.48
2019-03-25T06:10:53.128Z,100566.95
2019-03-25T06:13:23.507Z,100559.16
2019-03-25T06:15:53.905Z,100554.41
2019-03-25T06:18:24.271Z,100549.08
2019-03-25T06:20:55.282Z,100545.95
2019-03-25T06:23:26.464Z,100543.25
2019-03-25T06:25:57.609Z,100540.48
2019-03-25T06:28:28.056Z,100536.22
2019-03-25T06:30:58.616Z,100534.86
2019-03-25T06:33:28.989Z,100539.96
2019-03-25T06:35:59.700Z,100542.61
2019-03-25T06:38:33.384Z,100542.17
2019-03-25T06:41:06.413Z,100536.27
2019-03-25T06:43:38.435Z,100533.95
2019-03-25T06:46:08.827Z,100530.00
2019-03-25T06:48:39.356Z,100524.65
2019-03-25T06:51:10.777Z,100531.93
2019-03-25T06:53:41.277Z,100524.00
2019-03-25T06:56:11.628Z,100515.09
2019-03-25T06:58:42.010Z,100511.63
2019-03-25T07:01:12.362Z,100502.97
2019-03-25T07:03:42.747Z,100503.82
2019-03-25T07:06:13.157Z,100501.48
2019-03-25T07:08:43.545Z,100510.28
2019-03-25T07:11:13.950Z,100509.07
2019-03-25T07:13:44.295Z,100505.00
2019-03-25T07:16:15.303Z,100513.42
2019-03-25T07:18:45.704Z,100516.27
2019-03-25T07:21:16.839Z,100523.33
2019-03-25T07:23:47.450Z,100521.08
2019-03-25T07:26:17.811Z,100518.08
2019-03-25T07:28:48.233Z,100518.61
2019-03-25T07:31:18.611Z,100516.44
2019-03-25T07:33:48.974Z,100526.73
2019-03-25T07:36:20.488Z,100522.14
2019-03-25T07:38:51.108Z,100516.81
2019-03-25T07:41:21.462Z,100520.78
2019-03-25T07:43:51.892Z,100510.38
2019-03-25T07:46:22.187Z,100511.87
2019-03-25T07:48:52.620Z,100506.38
2019-03-25T07:51:22.971Z,100503.09
2019-03-25T07:53:53.346Z,100501.52
2019-03-25T07:56:23.790Z,100503.20
2019-03-25T07:58:54.161Z,100495.78
2019-03-25T08:01:24.566Z,100493.39
2019-03-25T08:03:55.029Z,100496.02
2019-03-25T08:06:25.403Z,100490.63
2019-03-25T08:09:03.664Z,100488.36
2019-03-25T08:11:28.503Z,100483.08
2019-03-25T08:13:58.947Z,100477.98
2019-03-25T08:16:29.309Z,100482.05
2019-03-25T08:18:59.684Z,100479.86
2019-03-25T08:21:30.128Z,100478.58
2019-03-25T08:24:00.486Z,100478.04
2019-03-25T08:26:30.906Z,100476.03
2019-03-25T08:29:01.263Z,100470.09
2019-03-25T08:31:31.693Z,100468.48
2019-03-25T08:34:02.678Z,100471.42
2019-03-25T08:36:33.394Z,100464.77
2019-03-25T08:39:05.627Z,100459.54
2019-03-25T08:41:36.742Z,100457.94
2019-03-25T08:44:07.824Z,100456.53
2019-03-25T08:46:38.956Z,100459.62
2019-03-25T08:49:11.939Z,100462.73
2019-03-25T08:51:42.079Z,100468.92
2019-03-25T08:54:12.435Z,100466.32
2019-03-25T08:56:42.860Z,100465.25
2019-03-25T08:59:13.269Z,100466.08
2019-03-25T09:01:43.718Z,100465.55
2019-03-25T09:04:14.090Z,100459.75
2019-03-25T09:06:44.469Z,100463.95
2019-03-25T09:09:14.851Z,100463.25
2019-03-25T09:11:45.260Z,100462.83
2019-03-25T09:14:15.636Z,100458.08
2019-03-25T09:16:46.007Z,100453.37
2019-03-25T09:19:16.410Z,100455.05
2019-03-25T09:21:46.765Z,100450.68
2019-03-25T09:24:17.130Z,100446.77
2019-03-25T09:26:47.522Z,100446.61
2019-03-25T09:29:20.231Z,100444.88
2019-03-25T09:31:51.363Z,100435.47
2019-03-25T09:34:21.710Z,100435.96
2019-03-25T09:36:52.099Z,100432.02
2019-03-25T09:39:22.492Z,100435.39
2019-03-25T09:41:52.900Z,100446.32
2019-03-25T09:44:23.258Z,100431.33
2019-03-25T09:46:53.637Z,100440.25
2019-03-25T09:49:24.215Z,100443.94
2019-03-25T09:51:54.569Z,100444.21
2019-03-25T09:54:25.039Z,100438.97
2019-03-25T09:56:55.832Z,100438.56
2019-03-25T09:59:26.222Z,100436.23
2019-03-25T10:01:57.069Z,100437.59
2019-03-25T10:04:27.544Z,100435.08
2019-03-25T10:06:57.943Z,100433.16
2019-03-25T10:09:28.320Z,100432.83
2019-03-25T10:11:58.709Z,100435.96
2019-03-25T10:14:29.098Z,100424.61
2019-03-25T10:16:59.870Z,100422.39
2019-03-25T10:19:30.328Z,100425.53
2019-03-25T10:22:00.816Z,100427.87
2019-03-25T10:24:31.177Z,100424.78
2019-03-25T10:27:01.534Z,100423.81
2019-03-25T10:29:32.113Z,100427.75
2019-03-25T10:32:02.593Z,100425.81
2019-03-25T10:34:32.961Z,100423.87
2019-03-25T10:37:03.320Z,100428.08
2019-03-25T10:39:33.689Z,100424.77
2019-03-25T10:42:04.084Z,100421.91
2019-03-25T10:44:34.464Z,100418.30
2019-03-25T10:47:04.837Z,100423.11
2019-03-25T10:49:35.225Z,100427.14
2019-03-25T10:52:05.600Z,100422.72
2019-03-25T10:54:36.123Z,100424.09
2019-03-25T10:57:06.568Z,100429.42
2019-03-25T10:59:37.940Z,100434.96
2019-03-25T11:02:08.323Z,100430.83
2019-03-25T11:04:38.673Z,100431.20
2019-03-25T11:07:09.118Z,100428.56
2019-03-25T11:09:39.578Z,100439.25
2019-03-25T11:12:10.374Z,100434.27
2019-03-25T11:14:40.748Z,100429.39
2019-03-25T11:17:11.119Z,100433.83
2019-03-25T11:19:41.495Z,100442.48
2019-03-25T11:22:11.834Z,100446.83
2019-03-25T11:24:42.241Z,100449.12
2019-03-25T11:27:12.624Z,100455.00
2019-03-25T11:29:43.204Z,100456.73
2019-03-25T11:32:13.562Z,100469.23
2019-03-25T11:34:43.929Z,100462.84
2019-03-25T11:37:14.295Z,100464.26
2019-03-25T11:39:44.844Z,100465.03
2019-03-25T11:42:15.212Z,100465.53
2019-03-25T11:44:45.549Z,100470.64
2019-03-25T11:47:15.902Z,100472.21
2019-03-25T11:49:46.408Z,100476.45
2019-03-25T11:52:16.887Z,100478.37
2019-03-25T11:54:47.301Z,100479.58
2019-03-25T11:57:17.650Z,100487.65
2019-03-25T11:59:48.002Z,100495.95
2019-03-25T12:02:18.388Z,100493.72
2019-03-25T12:04:48.751Z,100496.60
2019-03-25T12:07:20.204Z,100495.52
2019-03-25T12:09:50.552Z,100498.32
2019-03-25T12:12:20.881Z,100501.81
2019-03-25T12:14:51.223Z,100508.25
2019-03-25T12:17:21.658Z,100514.82
2019-03-25T12:19:52.003Z,100509.78
2019-03-25T12:22:22.340Z,100509.41
2019-03-25T12:24:52.678Z,100505.70
2019-03-25T12:27:23.082Z,100500.98
2019-03-25T12:29:53.481Z,100503.63
2019-03-25T12:32:23.885Z,100517.59
2019-03-25T12:34:54.253Z,100515.67
2019-03-25T12:37:24.606Z,100512.06
2019-03-25T12:39:54.955Z,100515.07
2019-03-25T12:42:25.301Z,100514.43
2019-03-25T12:44:55.648Z,100513.77
2019-03-25T12:47:26.056Z,100503.62
2019-03-25T12:49:56.405Z,100510.79
2019-03-25T12:52:26.799Z,100514.75
2019-03-25T12:54:57.156Z,100517.63
2019-03-25T12:57:28.089Z,100517.45
2019-03-25T12:59:58.458Z,100521.58
2019-03-25T13:02:28.835Z,100522.59
2019-03-25T13:04:59.199Z,100531.08
2019-03-25T13:07:30.500Z,100530.72
2019-03-25T13:10:00.871Z,100533.97
2019-03-25T13:12:34.270Z,100534.20
2019-03-25T13:15:08.676Z,100534.92
2019-03-25T13:17:39.041Z,100534.04
2019-03-25T13:20:09.461Z,100534.95
2019-03-25T13:22:40.018Z,100538.80
2019-03-25T13:25:10.367Z,100547.45
2019-03-25T13:27:40.717Z,100546.91
2019-03-25T13:30:15.754Z,100553.73
2019-03-25T13:32:44.816Z,100556.09
2019-03-25T13:35:15.212Z,100554.05
2019-03-25T13:37:45.544Z,100552.52
2019-03-25T13:40:15.895Z,100556.47
2019-03-25T13:42:46.276Z,100555.61
2019-03-25T13:45:16.638Z,100554.03
2019-03-25T13:47:46.996Z,100559.81
2019-03-25T13:50:17.352Z,100563.92
2019-03-25T13:52:47.724Z,100566.25
2019-03-25T13:55:18.075Z,100564.93
2019-03-25T13:57:48.456Z,100557.35
2019-03-25T14:00:22.074Z,100561.80
2019-03-25T14:02:52.479Z,100565.66
2019-03-25T14:05:23.147Z,100569.62
2019-03-25T14:07:53.508Z,100572.41
2019-03-25T14:10:23.870Z,100571.55
2019-03-25T14:12:54.215Z,100573.09
2019-03-25T14:15:24.585Z,100577.73
2019-03-25T14:17:54.960Z,100573.97
2019-03-25T14:20:28.183Z,100583.54
2019-03-25T14:22:58.534Z,100583.41
2019-03-25T14:25:28.882Z,100586.06
2019-03-25T14:27:59.335Z,100589.92
2019-03-25T14:30:29.995Z,100590.33
2019-03-25T14:33:01.386Z,100581.57
2019-03-25T14:35:31.762Z,100587.50
2019-03-25T14:38:04.394Z,100588.95
2019-03-25T14:40:34.882Z,100589.02
2019-03-25T14:43:05.223Z,100592.97
2019-03-25T14:45:35.618Z,100590.19
2019-03-25T14:48:05.977Z,100592.02
2019-03-25T14:50:38.039Z,100590.53
2019-03-25T14:53:08.382Z,100582.25
2019-03-25T14:55:38.743Z,100583.74
2019-03-25T14:58:09.140Z,100589.25
2019-03-25T15:00:39.498Z,100600.56
2019-03-25T15:03:11.291Z,100627.70
2019-03-25T15:05:42.668Z,100636.04
2019-03-25T15:08:13.068Z,100630.44
2019-03-25T15:10:53.180Z,100636.75
2019-03-25T15:13:15.712Z,100639.97
2019-03-25T15:15:46.198Z,100642.11
2019-03-25T15:18:16.602Z,100628.82
2019-03-25T15:20:48.026Z,100630.66
2019-03-25T15:23:18.518Z,100627.61
2019-03-25T15:25:48.879Z,100631.34
2019-03-25T15:28:20.226Z,100640.52
2019-03-25T15:30:50.620Z,100644.00
2019-03-25T15:33:22.429Z,100644.69
2019-03-25T15:35:53.751Z,100647.22
2019-03-25T15:38:25.517Z,100646.91
2019-03-25T15:40:56.093Z,100657.69
2019-03-25T15:43:26.463Z,100652.53
2019-03-25T15:45:56.818Z,100663.62
2019-03-25T15:48:27.943Z,100659.68
2019-03-25T15:50:58.307Z,100664.98
2019-03-25T15:53:28.908Z,100666.16
2019-03-25T15:55:59.306Z,100667.80
2019-03-25T15:58:29.909Z,100672.06
2019-03-25T16:01:01.537Z,100669.83
2019-03-25T16:03:31.900Z,100667.86
2019-03-25T16:06:02.255Z,100676.25
2019-03-25T16:08:32.884Z,100682.41
2019-03-25T16:11:03.317Z,100675.27
2019-03-25T16:13:33.687Z,100695.86
2019-03-25T16:16:04.077Z,100702.70
2019-03-25T16:18:39.415Z,100705.58
2019-03-25T16:21:10.156Z,100711.59
2019-03-25T16:23:40.491Z,100707.78
2019-03-25T16:26:10.848Z,100710.70
2019-03-25T16:28:41.205Z,100717.89
2019-03-25T16:31:12.647Z,100714.97
2019-03-25T16:33:43.043Z,100713.19
2019-03-25T16:36:13.521Z,100712.34
2019-03-25T16:38:44.196Z,100711.69
2019-03-25T16:41:16.890Z,100716.73
2019-03-25T16:43:48.256Z,100718.63
2019-03-25T16:46:18.794Z,100720.52
2019-03-25T16:48:50.251Z,100718.69
2019-03-25T16:51:20.767Z,100728.13
2019-03-25T16:54:09.315Z,100735.11
2019-03-25T16:56:39.696Z,100738.73
2019-03-25T16:59:10.069Z,100748.16
2019-03-25T17:01:40.784Z,100741.96
2019-03-25T17:04:11.179Z,100750.74
2019-03-25T17:06:42.998Z,100761.50
2019-03-25T17:09:13.385Z,100767.00
2019-03-25T17:11:44.837Z,100767.88
2019-03-25T17:14:15.234Z,100773.27
2019-03-25T17:16:46.357Z,100778.52
2019-03-25T17:19:16.712Z,100780.81
2019-03-25T17:21:57.712Z,100789.78
2019-03-25T17:24:19.566Z,100798.47
2019-03-25T17:26:50.193Z,100796.39
2019-03-25T17:29:22.399Z,100808.39
2019-03-25T17:31:53.194Z,100809.97
2019-03-25T17:34:23.883Z,100814.00
2019-03-25T17:36:54.381Z,100820.39
2019-03-25T17:39:26.916Z,100820.38
2019-03-25T17:41:57.482Z,100830.30
2019-03-25T17:44:28.345Z,100834.95
2019-03-25T17:46:58.730Z,100830.67
2019-03-25T17:49:29.258Z,100841.20
2019-03-25T17:52:01.182Z,100853.55
2019-03-25T17:54:34.430Z,100854.28
2019-03-25T17:57:04.851Z,100859.88
2019-03-25T17:59:35.702Z,100859.89
2019-03-25T18:02:06.104Z,100868.79
2019-03-25T18:04:36.471Z,100871.25
2019-03-25T18:07:06.967Z,100871.73
2019-03-25T18:09:37.346Z,100874.07
2019-03-25T18:12:07.794Z,100880.22
2019-03-25T18:14:41.406Z,100884.48
2019-03-25T18:17:13.228Z,100889.16
2019-03-25T18:19:43.604Z,100889.53
2019-03-25T18:22:14.296Z,100897.37
2019-03-25T18:24:44.693Z,100906.78
2019-03-25T18:27:15.017Z,100917.18
2019-03-25T18:29:45.436Z,100917.30
2019-03-25T18:32:15.997Z,100919.37
2019-03-25T18:34:46.381Z,100922.34
2019-03-25T18:37:16.751Z,100932.48
2019-03-25T18:39:48.595Z,100932.20
2019-03-25T18:42:21.746Z,100936.77
2019-03-25T18:44:52.259Z,100946.57
2019-03-25T18:47:22.715Z,100948.38
2019-03-25T18:49:54.191Z,100939.94
2019-03-25T18:52:25.641Z,100946.16
2019-03-25T18:54:56.057Z,100952.50
2019-03-25T18:57:26.405Z,100950.13
2019-03-25T18:59:57.761Z,100950.66
2019-03-25T19:02:28.754Z,100961.16
2019-03-25T19:05:00.436Z,100966.38
2019-03-25T19:07:32.915Z,100973.78
2019-03-25T19:10:03.895Z,100967.59
2019-03-25T19:12:34.291Z,100974.22
2019-03-25T19:15:07.714Z,100980.59
2019-03-25T19:17:38.560Z,100988.17
2019-03-25T19:20:09.072Z,100999.37
2019-03-25T19:22:39.892Z,100999.28
2019-03-25T19:25:13.374Z,101010.47
2019-03-25T19:27:43.761Z,101014.51
2019-03-25T19:30:16.012Z,101014.51
2019-03-25T19:32:46.409Z,101010.88
2019-03-25T19:35:18.464Z,101015.95
2019-03-25T19:37:48.822Z,101018.03
2019-03-25T19:40:19.253Z,101028.93
2019-03-25T19:42:51.273Z,101040.28
2019-03-25T19:45:22.168Z,101044.29
2019-03-25T19:47:56.075Z,101051.13
2019-03-25T19:50:27.151Z,101054.67
2019-03-25T19:52:58.918Z,101055.77
2019-03-25T19:55:29.287Z,101053.73
2019-03-25T19:58:02.466Z,101060.09
2019-03-25T20:00:38.769Z,101068.02
2019-03-25T20:03:09.252Z,101077.86
2019-03-25T20:05:40.032Z,101078.66
2019-03-25T20:08:10.375Z,101089.00
2019-03-25T20:10:40.767Z,101090.34
2019-03-25T20:13:12.157Z,101095.75
2019-03-25T20:15:46.610Z,101107.52
2019-03-25T20:18:16.137Z,101119.20
2019-03-25T20:20:47.597Z,101117.12
2019-03-25T20:23:19.004Z,101127.45
2019-03-25T20:25:50.966Z,101123.31
2019-03-25T20:28:22.141Z,101126.75
2019-03-25T20:30:52.796Z,101134.43
2019-03-25T20:33:23.566Z,101133.46
2019-03-25T20:35:54.304Z,101136.97
2019-03-25T20:38:25.457Z,101151.28
2019-03-25T20:40:58.110Z,101144.83
2019-03-25T20:43:30.239Z,101147.62
2019-03-25T20:46:01.772Z,101154.55
2019-03-25T20:48:33.601Z,101146.05
2019-03-25T20:51:04.021Z,101149.88
2019-03-25T20:53:34.571Z,101155.25
2019-03-25T20:56:07.344Z,101161.28
2019-03-25T20:58:37.884Z,101176.05
2019-03-25T21:01:08.530Z,101174.69
2019-03-25T21:03:40.570Z,101180.72
2019-03-25T21:06:11.259Z,101174.22
2019-03-25T21:08:42.068Z,101175.89
2019-03-25T21:11:13.144Z,101188.04
2019-03-25T21:13:43.963Z,101189.00
2019-03-25T21:16:14.761Z,101193.77
2019-03-25T21:18:45.144Z,101197.41
2019-03-25T21:21:15.586Z,101193.78
2019-03-25T21:23:45.939Z,101194.28
2019-03-25T21:26:16.722Z,101195.23
2019-03-25T21:28:48.827Z,101193.77
2019-03-25T21:31:19.948Z,101198.96
2019-03-25T21:33:51.982Z,101203.82
2019-03-25T21:36:22.331Z,101207.34
2019-03-25T21:38:53.212Z,101207.93
2019-03-25T21:41:23.776Z,101206.55
2019-03-25T21:43:54.154Z,101209.38
2019-03-25T21:46:24.632Z,101212.52
2019-03-25T21:48:55.014Z,101223.95
2019-03-25T21:51:27.038Z,101222.55
2019-03-25T21:53:59.164Z,101215.56
2019-03-25T21:56:29.895Z,101223.09
2019-03-25T21:59:00.527Z,101221.55
2019-03-25T22:01:31.016Z,101231.45
2019-03-25T22:04:01.372Z,101226.45
2019-03-25T22:06:31.723Z,101235.48
2019-03-25T22:09:02.087Z,101232.95
2019-03-25T22:11:32.670Z,101231.22
2019-03-25T22:14:04.156Z,101241.34
2019-03-25T22:16:34.531Z,101240.95
2019-03-25T22:19:04.883Z,101249.84
2019-03-25T22:21:35.455Z,101253.98
2019-03-25T22:24:05.837Z,101266.52
2019-03-25T22:26:37.279Z,101261.93
2019-03-25T22:29:07.731Z,101260.32
2019-03-25T22:31:38.066Z,101263.14
2019-03-25T22:34:08.403Z,101264.03
2019-03-25T22:36:38.838Z,101272.60
2019-03-25T22:39:09.186Z,101271.52
2019-03-25T22:41:39.553Z,101267.22
2019-03-25T22:44:10.992Z,101274.68
2019-03-25T22:46:41.347Z,101278.05
2019-03-25T22:49:11.708Z,101282.92
2019-03-25T22:51:42.959Z,101291.19
2019-03-25T22:54:13.330Z,101297.55
2019-03-25T22:56:44.764Z,101301.77
2019-03-25T22:59:15.153Z,101301.81
2019-03-25T23:01:45.814Z,101300.42
2019-03-25T23:04:16.171Z,101309.54
2019-03-25T23:06:46.534Z,101317.03
2019-03-25T23:09:16.886Z,101317.72
2019-03-25T23:11:47.246Z,101331.41
2019-03-25T23:14:17.672Z,101341.15
2019-03-25T23:16:48.041Z,101344.02
2019-03-25T23:19:18.391Z,101349.59
2019-03-25T23:21:48.752Z,101350.51
2019-03-25T23:24:19.112Z,101351.65
2019-03-25T23:26:49.538Z,101357.38
2019-03-25T23:29:19.873Z,101359.74
2019-03-25T23:31:50.228Z,101368.73
2019-03-25T23:34:20.571Z,101370.42
2019-03-25T23:36:52.348Z,101365.94
2019-03-25T23:39:25.109Z,101373.42
2019-03-25T23:41:54.760Z,101378.82
2019-03-25T23:44:25.110Z,101375.14
2019-03-25T23:46:55.455Z,101380.22
2019-03-25T23:49:25.798Z,101372.94
2019-03-25T23:51:56.163Z,101379.83
2019-03-25T23:54:26.537Z,101379.45
2019-03-25T23:56:56.913Z,101384.17
2019-03-25T23:59:27.272Z,101381.83
